Time;durP1;ratioP1;P1;durP2;ratioP2;P2;SDS_P1;SDS_P2;PMS_P1;PMS_P2;Temp;Humidity;BMP_temperature;BMP_pressure;BME280_temperature;BME280_humidity;BME280_pressure;Samples;Min_cycle;Max_cycle;Signal;HPM_P1;HPM_P2
2023/10/19 00:02:15;;;;;;;6.68;3.00;;;;;;;;;;10413999;28;20569;-66
2023/10/19 00:07:15;;;;;;;4.97;2.97;;;;;;;;;;10415824;28;20022;-66
2023/10/19 00:12:16;;;;;;;4.53;2.75;;;;;;;;;;10412047;28;20021;-64
2023/10/19 00:17:20;;;;;;;3.90;2.55;;;;;;;;;;10418509;28;20480;-64
2023/10/19 00:22:21;;;;;;;6.20;2.72;;;;;;;;;;10416292;28;20032;-65
2023/10/19 00:27:23;;;;;;;2.55;2.08;;;;;;;;;;10413609;28;20388;-65
2023/10/19 00:32:28;;;;;;;3.40;2.10;;;;;;;;;;10414199;28;20032;-65
2023/10/19 00:37:32;;;;;;;5.03;2.65;;;;;;;;;;10412229;28;20053;-64
2023/10/19 00:42:32;;;;;;;5.13;2.70;;;;;;;;;;10404343;28;20044;-65
2023/10/19 00:47:42;;;;;;;5.30;2.47;;;;;;;;;;10381787;28;20433;-66
2023/10/19 00:52:46;;;;;;;4.65;2.22;;;;;;;;;;10378943;28;20030;-65
2023/10/19 00:57:49;;;;;;;6.72;2.90;;;;;;;;;;10385739;28;20041;-66
2023/10/19 01:02:51;;;;;;;4.32;2.60;;;;;;;;;;10394266;28;20053;-63
2023/10/19 01:07:58;;;;;;;3.03;2.08;;;;;;;;;;10410367;28;20477;-68
2023/10/19 01:12:59;;;;;;;3.08;2.20;;;;;;;;;;10426633;28;20178;-68
2023/10/19 01:18:01;;;;;;;2.45;2.17;;;;;;;;;;10402828;28;20041;-69
2023/10/19 01:28:10;;;;;;;4.20;2.15;;;;;;;;;;10410254;28;20029;-67
2023/10/19 01:33:15;;;;;;;2.42;2.20;;;;;;;;;;10428571;28;20029;-66
2023/10/19 01:38:16;;;;;;;3.45;2.33;;;;;;;;;;10393906;28;20048;-66
2023/10/19 01:43:30;;;;;;;2.97;2.17;;;;;;;;;;10412076;28;20040;-66
2023/10/19 01:48:35;;;;;;;3.30;2.00;;;;;;;;;;10410085;28;20030;-67
2023/10/19 01:53:47;;;;;;;2.38;2.10;;;;;;;;;;10411423;28;20029;-67
2023/10/19 01:58:49;;;;;;;3.05;1.88;;;;;;;;;;10392937;28;20389;-67
2023/10/19 02:03:54;;;;;;;3.40;2.20;;;;;;;;;;10410708;28;20061;-66
2023/10/19 02:14:33;;;;;;;3.17;2.17;;;;;;;;;;10377629;28;20045;-67
2023/10/19 02:19:33;;;;;;;3.42;2.10;;;;;;;;;;10420923;28;20104;-67
2023/10/19 02:24:34;;;;;;;2.85;2.00;;;;;;;;;;10381128;28;20117;-68
2023/10/19 02:29:36;;;;;;;4.10;2.10;;;;;;;;;;10409730;28;20048;-68
2023/10/19 02:34:36;;;;;;;1.83;1.73;;;;;;;;;;10410828;28;20084;-68
2023/10/19 02:39:37;;;;;;;2.10;1.90;;;;;;;;;;10410613;28;20045;-68
2023/10/19 02:44:38;;;;;;;2.13;1.92;;;;;;;;;;10409583;28;20025;-67
2023/10/19 02:49:39;;;;;;;2.30;2.10;;;;;;;;;;10410032;28;20444;-68
2023/10/19 02:54:40;;;;;;;2.92;1.90;;;;;;;;;;10407738;28;20026;-68
2023/10/19 02:59:40;;;;;;;2.60;1.95;;;;;;;;;;10409058;28;20029;-69
2023/10/19 03:04:45;;;;;;;3.38;1.73;;;;;;;;;;10407749;28;20037;-67
2023/10/19 03:09:48;;;;;;;2.97;1.90;;;;;;;;;;10409483;28;20015;-69
2023/10/19 03:14:50;;;;;;;2.78;1.80;;;;;;;;;;10406011;28;20365;-66
2023/10/19 03:19:50;;;;;;;2.65;1.77;;;;;;;;;;10408582;28;20040;-67
2023/10/19 03:25:11;;;;;;;2.03;1.80;;;;;;;;;;10400959;28;20054;-67
2023/10/19 03:30:15;;;;;;;3.72;1.95;;;;;;;;;;10384797;28;20405;-67
2023/10/19 03:35:16;;;;;;;3.10;1.90;;;;;;;;;;10409471;28;20388;-67
2023/10/19 03:40:25;;;;;;;4.05;1.90;;;;;;;;;;10407605;28;20052;-67
2023/10/19 03:45:27;;;;;;;2.10;1.75;;;;;;;;;;10397285;28;20025;-67
2023/10/19 03:50:29;;;;;;;1.90;1.70;;;;;;;;;;10408779;28;20033;-67
2023/10/19 03:55:30;;;;;;;1.80;1.70;;;;;;;;;;10408342;28;20034;-67
2023/10/19 04:00:33;;;;;;;2.08;1.70;;;;;;;;;;10406590;28;20029;-67
2023/10/19 04:05:38;;;;;;;1.65;1.50;;;;;;;;;;10409280;28;20120;-67
2023/10/19 04:10:44;;;;;;;2.75;1.80;;;;;;;;;;10403286;28;20504;-67
2023/10/19 04:15:45;;;;;;;2.08;1.80;;;;;;;;;;10384273;28;20096;-67
2023/10/19 04:25:48;;;;;;;1.67;1.58;;;;;;;;;;10412460;28;20033;-66
2023/10/19 04:30:49;;;;;;;3.80;1.80;;;;;;;;;;10415304;28;20033;-65
2023/10/19 04:35:55;;;;;;;3.78;1.63;;;;;;;;;;10413505;28;20441;-65
2023/10/19 04:41:07;;;;;;;2.85;1.80;;;;;;;;;;10414667;28;20191;-69
2023/10/19 04:46:13;;;;;;;2.00;1.70;;;;;;;;;;10396438;28;20029;-66
2023/10/19 04:51:14;;;;;;;1.73;1.60;;;;;;;;;;10413852;28;20026;-67
2023/10/19 04:56:14;;;;;;;2.03;1.80;;;;;;;;;;10406532;28;20025;-66
2023/10/19 05:01:15;;;;;;;2.47;1.48;;;;;;;;;;10412587;28;20049;-68
2023/10/19 05:06:15;;;;;;;3.60;2.10;;;;;;;;;;10412459;28;20032;-71
2023/10/19 05:11:16;;;;;;;2.22;1.58;;;;;;;;;;10412392;28;20037;-68
2023/10/19 05:16:17;;;;;;;2.85;1.60;;;;;;;;;;10414668;28;20040;-67
2023/10/19 05:21:17;;;;;;;1.55;1.40;;;;;;;;;;10390803;28;20037;-70
2023/10/19 05:26:18;;;;;;;2.55;1.65;;;;;;;;;;10412915;28;20026;-68
2023/10/19 05:31:18;;;;;;;2.05;1.42;;;;;;;;;;10412363;28;20029;-68
2023/10/19 05:36:19;;;;;;;2.85;1.80;;;;;;;;;;10412093;28;20029;-69
2023/10/19 05:41:21;;;;;;;2.58;1.50;;;;;;;;;;10413527;28;20033;-70
2023/10/19 05:46:24;;;;;;;2.03;1.67;;;;;;;;;;10413441;28;20083;-68
2023/10/19 05:51:26;;;;;;;1.40;1.30;;;;;;;;;;10411889;28;20029;-67
2023/10/19 05:56:30;;;;;;;2.47;1.80;;;;;;;;;;10394940;28;20121;-67
2023/10/19 06:01:31;;;;;;;1.50;1.40;;;;;;;;;;10411926;28;20029;-69
2023/10/19 06:06:32;;;;;;;3.78;1.67;;;;;;;;;;10430885;28;20040;-68
2023/10/19 06:11:32;;;;;;;1.80;1.55;;;;;;;;;;10410863;28;20032;-70
2023/10/19 06:16:34;;;;;;;4.40;1.55;;;;;;;;;;10417306;28;20044;-68
2023/10/19 06:21:35;;;;;;;1.52;1.38;;;;;;;;;;10405129;28;20465;-68
2023/10/19 06:26:36;;;;;;;1.75;1.50;;;;;;;;;;10409079;28;20493;-67
2023/10/19 06:31:37;;;;;;;3.70;1.60;;;;;;;;;;10408742;28;20025;-67
2023/10/19 06:36:37;;;;;;;1.98;1.50;;;;;;;;;;10406808;28;20455;-68
2023/10/19 06:41:38;;;;;;;1.92;1.52;;;;;;;;;;10408702;28;20071;-66
2023/10/19 06:46:39;;;;;;;2.20;1.48;;;;;;;;;;10407967;28;20041;-67
2023/10/19 06:51:39;;;;;;;11.38;2.03;;;;;;;;;;10403775;28;20662;-65
2023/10/19 06:56:41;;;;;;;19.08;2.13;;;;;;;;;;10416442;28;20053;-65
2023/10/19 07:01:41;;;;;;;7.15;2.10;;;;;;;;;;10407965;28;20354;-64
2023/10/19 07:06:42;;;;;;;9.07;2.42;;;;;;;;;;10403503;28;20034;-64
2023/10/19 07:11:44;;;;;;;9.80;2.75;;;;;;;;;;10406400;28;20028;-64
2023/10/19 07:16:45;;;;;;;13.52;2.45;;;;;;;;;;10401268;28;20041;-64
2023/10/19 07:21:48;;;;;;;17.08;3.78;;;;;;;;;;10404416;28;20021;-66
2023/10/19 07:27:04;;;;;;;11.88;2.60;;;;;;;;;;10390483;28;20544;-67
2023/10/19 07:32:05;;;;;;;12.82;2.58;;;;;;;;;;10406735;28;20029;-65
2023/10/19 07:37:07;;;;;;;7.05;2.50;;;;;;;;;;10404716;28;20049;-66
2023/10/19 07:42:08;;;;;;;9.05;2.67;;;;;;;;;;10407993;28;20158;-65
2023/10/19 07:47:12;;;;;;;7.07;2.38;;;;;;;;;;10407308;28;20519;-67
2023/10/19 07:52:14;;;;;;;15.55;3.10;;;;;;;;;;10396874;28;20033;-64
2023/10/19 07:57:15;;;;;;;11.48;2.47;;;;;;;;;;10402580;28;20124;-67
2023/10/19 08:02:16;;;;;;;2.70;1.80;;;;;;;;;;10414339;28;20029;-65
2023/10/19 08:07:17;;;;;;;6.78;2.20;;;;;;;;;;10416624;28;20041;-67
2023/10/19 08:12:18;;;;;;;6.97;2.00;;;;;;;;;;10416225;28;20040;-64
2023/10/19 08:17:18;;;;;;;3.03;1.90;;;;;;;;;;10413466;28;20527;-65
2023/10/19 08:22:19;;;;;;;4.55;2.08;;;;;;;;;;10413739;28;20736;-65
2023/10/19 08:27:21;;;;;;;5.90;2.42;;;;;;;;;;10411814;28;20056;-65
2023/10/19 08:32:21;;;;;;;7.60;2.20;;;;;;;;;;10395074;28;20057;-65
2023/10/19 08:37:22;;;;;;;4.55;1.40;;;;;;;;;;10410882;28;20049;-66
2023/10/19 08:42:24;;;;;;;2.35;1.80;;;;;;;;;;10414156;28;20032;-66
2023/10/19 08:47:25;;;;;;;3.85;2.05;;;;;;;;;;10398751;28;20129;-68
2023/10/19 08:52:27;;;;;;;4.15;1.52;;;;;;;;;;10412767;28;20018;-67
2023/10/19 08:57:28;;;;;;;3.38;1.70;;;;;;;;;;10420581;28;20064;-66
2023/10/19 09:02:29;;;;;;;4.38;1.80;;;;;;;;;;10383524;28;20575;-66
2023/10/19 09:07:30;;;;;;;6.53;2.13;;;;;;;;;;10406550;28;20026;-65
2023/10/19 09:12:31;;;;;;;2.65;1.63;;;;;;;;;;10406197;28;20425;-67
2023/10/19 09:17:32;;;;;;;2.53;1.70;;;;;;;;;;10410012;28;20029;-66
2023/10/19 09:22:44;;;;;;;8.65;2.10;;;;;;;;;;10408017;28;20037;-65
2023/10/19 09:27:45;;;;;;;5.70;1.70;;;;;;;;;;10411208;28;20121;-66
2023/10/19 09:32:48;;;;;;;2.55;1.80;;;;;;;;;;10405859;28;20026;-65
2023/10/19 09:37:49;;;;;;;2.85;1.67;;;;;;;;;;10407360;28;20136;-64
2023/10/19 09:42:56;;;;;;;3.40;1.88;;;;;;;;;;10412162;28;20037;-66
2023/10/19 09:48:01;;;;;;;4.60;1.70;;;;;;;;;;10410754;28;20025;-67
2023/10/19 09:53:04;;;;;;;7.22;1.75;;;;;;;;;;10381203;28;20038;-67
2023/10/19 09:58:17;;;;;;;6.65;1.80;;;;;;;;;;10410639;28;20057;-65
2023/10/19 10:03:49;;;;;;;4.90;1.80;;;;;;;;;;10382403;28;20500;-65
2023/10/19 10:08:50;;;;;;;2.13;1.67;;;;;;;;;;10404135;28;20052;-65
2023/10/19 10:13:51;;;;;;;2.20;1.80;;;;;;;;;;10425461;28;20049;-66
2023/10/19 10:18:59;;;;;;;3.92;1.77;;;;;;;;;;10405309;28;20037;-66
2023/10/19 10:24:04;;;;;;;5.68;1.95;;;;;;;;;;10401941;28;20147;-67
2023/10/19 10:29:31;;;;;;;7.20;2.00;;;;;;;;;;10406867;28;20041;-64
2023/10/19 10:34:40;;;;;;;2.90;1.60;;;;;;;;;;10402431;28;20029;-65
2023/10/19 10:39:41;;;;;;;3.72;1.85;;;;;;;;;;10407938;28;20411;-65
2023/10/19 10:44:46;;;;;;;4.72;1.63;;;;;;;;;;10405629;28;20033;-65
2023/10/19 10:49:51;;;;;;;8.13;1.73;;;;;;;;;;10389495;28;20083;-65
2023/10/19 10:54:52;;;;;;;2.30;1.73;;;;;;;;;;10406635;28;20030;-65
2023/10/19 11:00:23;;;;;;;4.82;2.03;;;;;;;;;;10405552;28;20037;-65
2023/10/19 11:05:24;;;;;;;5.22;1.92;;;;;;;;;;10419840;28;20026;-65
2023/10/19 11:10:32;;;;;;;3.05;1.45;;;;;;;;;;10401911;28;20570;-66
2023/10/19 11:15:34;;;;;;;2.22;1.63;;;;;;;;;;10407535;28;20135;-65
2023/10/19 11:20:35;;;;;;;3.50;1.67;;;;;;;;;;10403966;28;20053;-66
2023/10/19 11:25:36;;;;;;;2.83;1.70;;;;;;;;;;10414061;28;20033;-64
2023/10/19 11:30:36;;;;;;;2.42;1.50;;;;;;;;;;10406535;28;20125;-65
2023/10/19 11:35:38;;;;;;;4.70;2.05;;;;;;;;;;10403477;28;20477;-65
2023/10/19 11:40:38;;;;;;;7.85;1.67;;;;;;;;;;10407694;28;20048;-66
2023/10/19 11:45:42;;;;;;;8.20;1.70;;;;;;;;;;10416800;28;20038;-66
2023/10/19 11:50:42;;;;;;;3.13;1.70;;;;;;;;;;10402088;28;20056;-66
2023/10/19 11:55:43;;;;;;;2.95;1.63;;;;;;;;;;10404330;28;20365;-66
2023/10/19 12:00:46;;;;;;;5.85;2.08;;;;;;;;;;10403484;28;20101;-65
2023/10/19 12:05:47;;;;;;;3.75;1.75;;;;;;;;;;10407146;28;20155;-66
2023/10/19 12:10:47;;;;;;;3.42;1.60;;;;;;;;;;10401652;28;20124;-66
2023/10/19 12:15:55;;;;;;;3.40;2.20;;;;;;;;;;10395783;28;20417;-66
2023/10/19 12:20:59;;;;;;;3.72;1.75;;;;;;;;;;10405609;28;20120;-65
2023/10/19 12:26:04;;;;;;;4.53;1.80;;;;;;;;;;10403013;28;20028;-66
2023/10/19 12:31:10;;;;;;;4.38;2.15;;;;;;;;;;10399715;28;20480;-66
2023/10/19 12:41:31;;;;;;;3.72;2.00;;;;;;;;;;10401599;28;20025;-66
2023/10/19 12:46:35;;;;;;;4.28;2.13;;;;;;;;;;10400172;28;20584;-64
2023/10/19 12:51:36;;;;;;;5.18;1.90;;;;;;;;;;10394486;28;20022;-66
2023/10/19 12:56:39;;;;;;;3.63;1.75;;;;;;;;;;10412927;28;20021;-66
2023/10/19 13:01:40;;;;;;;4.72;2.00;;;;;;;;;;10410496;28;20022;-65
2023/10/19 13:06:40;;;;;;;3.45;2.00;;;;;;;;;;10411232;28;20037;-64
2023/10/19 13:11:45;;;;;;;5.80;1.80;;;;;;;;;;10408699;28;20025;-65
2023/10/19 13:16:45;;;;;;;3.08;1.70;;;;;;;;;;10411153;28;20480;-64
2023/10/19 13:21:49;;;;;;;6.72;2.00;;;;;;;;;;10395077;28;20052;-66
2023/10/19 13:26:50;;;;;;;3.05;1.50;;;;;;;;;;10378146;28;20025;-66
2023/10/19 13:31:52;;;;;;;4.50;1.77;;;;;;;;;;10383781;28;20493;-65
2023/10/19 13:36:52;;;;;;;2.88;1.50;;;;;;;;;;10398333;28;20042;-66
2023/10/19 13:41:53;;;;;;;4.65;1.83;;;;;;;;;;10383707;28;20026;-64
2023/10/19 13:46:54;;;;;;;5.25;2.03;;;;;;;;;;10379771;28;20034;-65
2023/10/19 13:51:54;;;;;;;3.72;1.50;;;;;;;;;;10407654;28;20036;-65
2023/10/19 13:56:55;;;;;;;2.97;1.75;;;;;;;;;;10408053;28;20033;-66
2023/10/19 14:01:55;;;;;;;4.25;1.88;;;;;;;;;;10401973;28;20033;-66
2023/10/19 14:06:56;;;;;;;1.95;1.70;;;;;;;;;;10406976;28;20044;-64
2023/10/19 14:11:57;;;;;;;1.55;1.45;;;;;;;;;;10407725;28;20120;-65
2023/10/19 14:16:58;;;;;;;3.83;1.90;;;;;;;;;;10401242;28;20129;-65
2023/10/19 14:21:58;;;;;;;6.95;2.20;;;;;;;;;;10387585;28;20622;-66
2023/10/19 14:27:00;;;;;;;15.88;1.75;;;;;;;;;;10409228;28;20060;-65
2023/10/19 14:32:00;;;;;;;4.70;1.30;;;;;;;;;;10411817;28;20045;-66
2023/10/19 14:37:03;;;;;;;5.70;1.75;;;;;;;;;;10401989;28;20374;-66
2023/10/19 14:42:04;;;;;;;6.75;1.85;;;;;;;;;;10409923;28;20029;-66
2023/10/19 14:47:06;;;;;;;4.38;1.88;;;;;;;;;;10408002;28;20037;-65
2023/10/19 14:52:06;;;;;;;5.07;1.70;;;;;;;;;;10407387;28;20441;-66
2023/10/19 14:57:07;;;;;;;4.57;1.45;;;;;;;;;;10404419;28;20033;-65
2023/10/19 15:02:12;;;;;;;2.78;2.03;;;;;;;;;;10393184;28;20078;-66
2023/10/19 15:07:12;;;;;;;2.60;1.55;;;;;;;;;;10399717;28;20037;-66
2023/10/19 15:12:13;;;;;;;2.35;1.55;;;;;;;;;;10400045;28;20531;-66
2023/10/19 15:17:13;;;;;;;1.77;1.40;;;;;;;;;;10402201;28;20395;-65
2023/10/19 15:22:16;;;;;;;3.88;1.70;;;;;;;;;;10390207;28;20424;-66
2023/10/19 15:27:18;;;;;;;7.40;1.70;;;;;;;;;;10393231;28;20025;-67
2023/10/19 15:32:19;;;;;;;2.97;1.63;;;;;;;;;;10395856;28;20038;-66
2023/10/19 15:37:20;;;;;;;10.15;1.60;;;;;;;;;;10406209;28;20045;-65
2023/10/19 15:42:26;;;;;;;3.47;1.50;;;;;;;;;;10393417;28;20052;-63
2023/10/19 15:47:27;;;;;;;3.60;1.33;;;;;;;;;;10382769;28;20175;-64
2023/10/19 15:52:28;;;;;;;2.13;1.23;;;;;;;;;;10386687;28;20034;-65
2023/10/19 15:57:30;;;;;;;3.05;1.45;;;;;;;;;;10395564;28;20036;-64
2023/10/19 16:02:32;;;;;;;5.40;1.90;;;;;;;;;;10392344;28;20500;-66
2023/10/19 16:07:33;;;;;;;2.55;1.40;;;;;;;;;;10399982;28;20051;-65
2023/10/19 16:12:34;;;;;;;2.95;1.90;;;;;;;;;;10402778;28;20473;-64
2023/10/19 16:17:36;;;;;;;15.82;1.92;;;;;;;;;;10401567;28;20025;-64
2023/10/19 16:22:36;;;;;;;3.95;1.90;;;;;;;;;;10415853;28;20119;-62
2023/10/19 16:27:38;;;;;;;9.15;1.83;;;;;;;;;;10384525;28;20029;-63
2023/10/19 16:32:40;;;;;;;10.35;2.20;;;;;;;;;;10393880;28;20503;-63
2023/10/19 16:37:41;;;;;;;3.72;1.85;;;;;;;;;;10383469;28;20203;-64
2023/10/19 16:42:41;;;;;;;6.05;1.80;;;;;;;;;;10407841;28;20144;-64
2023/10/19 16:47:42;;;;;;;2.78;1.60;;;;;;;;;;10415191;28;20053;-64
2023/10/19 16:52:44;;;;;;;2.45;1.70;;;;;;;;;;10412413;28;20033;-64
2023/10/19 16:57:44;;;;;;;3.25;1.50;;;;;;;;;;10408271;28;20039;-64
2023/10/19 17:02:45;;;;;;;2.50;1.63;;;;;;;;;;10407170;28;20499;-64
2023/10/19 17:07:45;;;;;;;5.45;1.70;;;;;;;;;;10412460;28;20021;-64
2023/10/19 17:12:46;;;;;;;2.42;1.75;;;;;;;;;;10408171;28;20028;-64
2023/10/19 17:17:47;;;;;;;6.85;1.98;;;;;;;;;;10395632;28;20033;-64
2023/10/19 17:22:48;;;;;;;4.13;2.10;;;;;;;;;;10392990;28;20405;-63
2023/10/19 17:27:49;;;;;;;2.55;1.58;;;;;;;;;;10405565;28;20033;-65
2023/10/19 17:32:49;;;;;;;6.18;1.75;;;;;;;;;;10403181;28;20551;-64
2023/10/19 17:37:50;;;;;;;5.75;2.05;;;;;;;;;;10399549;28;20812;-64
2023/10/19 17:42:50;;;;;;;6.07;1.73;;;;;;;;;;10398467;28;20277;-64
2023/10/19 17:47:52;;;;;;;6.43;1.80;;;;;;;;;;10392756;28;20095;-64
2023/10/19 17:52:52;;;;;;;4.35;1.98;;;;;;;;;;10394460;28;20041;-64
2023/10/19 17:57:53;;;;;;;2.80;1.58;;;;;;;;;;10394138;28;20428;-63
2023/10/19 18:02:54;;;;;;;5.13;1.80;;;;;;;;;;10391513;28;20415;-63
2023/10/19 18:07:55;;;;;;;2.30;1.42;;;;;;;;;;10394094;28;20037;-64
2023/10/19 18:12:57;;;;;;;3.05;1.70;;;;;;;;;;10403113;28;20114;-64
2023/10/19 18:17:57;;;;;;;3.35;1.80;;;;;;;;;;10394015;28;20036;-63
2023/10/19 18:22:59;;;;;;;3.35;1.77;;;;;;;;;;10403957;28;20508;-63
2023/10/19 18:28:00;;;;;;;2.83;1.85;;;;;;;;;;10399929;28;20550;-63
2023/10/19 18:33:02;;;;;;;5.30;1.55;;;;;;;;;;10406744;28;20038;-63
2023/10/19 18:38:03;;;;;;;1.80;1.60;;;;;;;;;;10366001;28;1120359;-64
2023/10/19 18:43:03;;;;;;;5.60;1.95;;;;;;;;;;10399572;28;20033;-64
2023/10/19 18:48:05;;;;;;;4.70;2.25;;;;;;;;;;10402021;28;20067;-63
2023/10/19 18:53:06;;;;;;;3.70;1.60;;;;;;;;;;10393979;28;20032;-65
2023/10/19 18:58:08;;;;;;;4.15;1.80;;;;;;;;;;10399311;28;20032;-63
2023/10/19 19:03:08;;;;;;;2.70;1.85;;;;;;;;;;10398040;28;20037;-61
2023/10/19 19:08:09;;;;;;;4.93;2.00;;;;;;;;;;10399501;28;20034;-64
2023/10/19 19:13:10;;;;;;;5.22;1.80;;;;;;;;;;10400055;28;20037;-64
2023/10/19 19:18:10;;;;;;;3.42;1.73;;;;;;;;;;10411146;28;20095;-64
2023/10/19 19:23:12;;;;;;;3.30;1.80;;;;;;;;;;10403420;28;20112;-65
2023/10/19 19:28:13;;;;;;;10.32;2.20;;;;;;;;;;10396597;28;20030;-67
2023/10/19 19:33:15;;;;;;;12.43;3.08;;;;;;;;;;10395070;28;20432;-66
2023/10/19 19:38:15;;;;;;;23.23;2.45;;;;;;;;;;10395002;28;20052;-67
2023/10/19 19:43:16;;;;;;;7.18;2.65;;;;;;;;;;10402498;28;20028;-67
2023/10/19 19:48:22;;;;;;;15.10;2.85;;;;;;;;;;10397334;28;20034;-66
2023/10/19 19:53:23;;;;;;;11.85;2.70;;;;;;;;;;10397076;28;20033;-67
2023/10/19 19:58:24;;;;;;;9.55;2.70;;;;;;;;;;10401940;28;20429;-66
2023/10/19 20:03:25;;;;;;;12.10;2.40;;;;;;;;;;10402418;28;20029;-67
2023/10/19 20:08:26;;;;;;;8.00;2.75;;;;;;;;;;10400831;28;20029;-66
2023/10/19 20:13:27;;;;;;;4.88;2.13;;;;;;;;;;10415622;28;20389;-66
2023/10/19 20:18:28;;;;;;;5.32;2.47;;;;;;;;;;10409082;28;20033;-66
2023/10/19 20:23:28;;;;;;;4.78;2.13;;;;;;;;;;10412035;28;20025;-67
2023/10/19 20:28:29;;;;;;;7.05;2.50;;;;;;;;;;10408170;28;20022;-68
2023/10/19 20:33:30;;;;;;;8.95;2.92;;;;;;;;;;10408349;28;20025;-66
2023/10/19 20:38:30;;;;;;;10.13;2.35;;;;;;;;;;10403312;28;20077;-68
2023/10/19 20:43:31;;;;;;;7.88;2.22;;;;;;;;;;10406583;28;20025;-67
2023/10/19 20:48:32;;;;;;;6.22;2.30;;;;;;;;;;10405889;28;20029;-67
2023/10/19 20:53:33;;;;;;;5.25;1.95;;;;;;;;;;10412139;28;20030;-67
2023/10/19 20:58:33;;;;;;;4.57;2.03;;;;;;;;;;10401708;28;20489;-67
2023/10/19 21:03:37;;;;;;;9.23;2.40;;;;;;;;;;10406632;28;20021;-67
2023/10/19 21:08:37;;;;;;;4.30;2.05;;;;;;;;;;10412336;28;20037;-67
2023/10/19 21:13:38;;;;;;;4.47;2.10;;;;;;;;;;10405610;28;20076;-67
2023/10/19 21:18:42;;;;;;;4.20;1.92;;;;;;;;;;10406781;28;20547;-68
2023/10/19 21:23:43;;;;;;;6.80;2.22;;;;;;;;;;10408015;28;20045;-67
2023/10/19 21:28:43;;;;;;;3.08;1.95;;;;;;;;;;10404928;28;20033;-67
2023/10/19 21:33:44;;;;;;;3.53;2.15;;;;;;;;;;10406536;28;20021;-67
2023/10/19 21:38:44;;;;;;;3.20;2.03;;;;;;;;;;10410978;28;20045;-67
2023/10/19 21:43:45;;;;;;;2.40;2.03;;;;;;;;;;10410354;28;20047;-67
2023/10/19 21:48:46;;;;;;;5.05;2.25;;;;;;;;;;10400053;28;20021;-68
2023/10/19 21:53:50;;;;;;;3.53;2.00;;;;;;;;;;10402024;28;20033;-67
2023/10/19 21:58:50;;;;;;;2.92;1.80;;;;;;;;;;10406153;28;20052;-67
2023/10/19 22:03:51;;;;;;;3.15;1.77;;;;;;;;;;10409976;28;20056;-66
2023/10/19 22:08:51;;;;;;;2.78;1.80;;;;;;;;;;10401028;28;20029;-66
2023/10/19 22:13:52;;;;;;;4.07;1.90;;;;;;;;;;10409806;28;20032;-65
2023/10/19 22:18:53;;;;;;;3.97;2.28;;;;;;;;;;10411308;28;20045;-65
2023/10/19 22:23:53;;;;;;;10.82;2.50;;;;;;;;;;10408534;28;20033;-65
2023/10/19 22:28:54;;;;;;;5.90;2.55;;;;;;;;;;10409369;28;20030;-65
2023/10/19 22:33:55;;;;;;;2.58;2.10;;;;;;;;;;10409969;28;20025;-66
2023/10/19 22:38:55;;;;;;;11.02;2.15;;;;;;;;;;10394946;28;20504;-65
2023/10/19 22:43:56;;;;;;;10.05;2.10;;;;;;;;;;10401585;28;20038;-67
2023/10/19 22:48:58;;;;;;;8.48;2.80;;;;;;;;;;10400616;28;20056;-67
2023/10/19 22:53:58;;;;;;;10.13;2.47;;;;;;;;;;10380913;28;20033;-67
2023/10/19 22:58:59;;;;;;;7.45;2.47;;;;;;;;;;10398066;28;20030;-67
2023/10/19 23:04:00;;;;;;;8.25;2.85;;;;;;;;;;10382035;28;20018;-66
2023/10/19 23:09:01;;;;;;;9.50;2.38;;;;;;;;;;10381895;28;20042;-67
2023/10/19 23:14:03;;;;;;;4.60;2.25;;;;;;;;;;10388971;28;20044;-67
2023/10/19 23:19:03;;;;;;;18.23;2.10;;;;;;;;;;10405008;28;20034;-67
2023/10/19 23:24:05;;;;;;;2.85;1.88;;;;;;;;;;10409088;28;20033;-67
2023/10/19 23:29:09;;;;;;;4.95;2.30;;;;;;;;;;10404802;28;20496;-67
2023/10/19 23:34:12;;;;;;;7.07;2.35;;;;;;;;;;10406594;28;20021;-67
2023/10/19 23:39:21;;;;;;;6.85;2.28;;;;;;;;;;10405748;28;20080;-67
2023/10/19 23:44:23;;;;;;;3.38;2.00;;;;;;;;;;10404815;28;20033;-67
2023/10/19 23:49:25;;;;;;;5.10;1.92;;;;;;;;;;10406319;28;20029;-67
2023/10/19 23:54:25;;;;;;;7.70;1.75;;;;;;;;;;10406075;28;20029;-67
2023/10/19 23:59:26;;;;;;;5.10;2.20;;;;;;;;;;10402127;28;20033;-66
